Main page
METAR-TAF:

METAR-TAF

Airports :

João Paulo II Airport

Ponta Delgada, Azores, Portugal

latitude: 37-44N, longitude: 025-42W, elevation: 71 m

Current weather observation

The report was made 16 minutes ago, at 20:30 UTC
Wind 6 kt from variable directions
Temperature 22°C
Humidity 83%
Pressure 1025 hPa
Visibility 10 km or more
Few clouds at a height of 700 ft

METAR: LPPD 282030Z VRB06KT 9999 FEW007 22/19 Q1025

Time: 20:46 (20:46 UTC)

Forecast

The report was made 3 hours and 46 minutes ago, at 17:00 UTC
Forecast valid from 28 at 18 UTC to 29 at 18 UTC
Wind 12 kt from the North/Northeast
Visibility 10 km or more
Scattered clouds at a height of 1300 ft
Scattered clouds at a height of 3000 ft
Probability 40% :
Temporary
from 28 at 18 UTC to 29 at 10 UTC
Visibility: 5000 m
Scattered clouds at a height of 400 ft
Broken clouds at a height of 800 ft
light rain

TAF: LPPD 281700Z 2818/2918 03012KT 9999 SCT013 SCT030 PROB40 TEMPO 2818/2910 5000 -RA SCT004 BKN008

Weather observations and forecasts of more than 4000 airports (METAR and TAF reports).

The available stations are represented by yellow and red dots on the map.

Hover mouse over dot to see the name of the station.

Then click to see weather observations and forecasts.

To change the map : click on the green buttons with a black cross to zoom in, on the green button with a dash to zoom out, or on the green arrows for adjacent maps.


METAR-TAF: